UGTBLIRA

Guest
Details From UGTB - Tbilisi
To LIRA - Ciampino
Flight Number -
Tags Generated
Created
Modified
Stats Distance 1,442 nm / 2,670 km
Max Altitude 0 ft / 0 m
Waypoints 7
Social Downloads 0
Likes 0
Share VATSIM

Download

Looking for another format? Having issues loading an existing format? Contact us
Advertisement - Login to hide

Notes

Generated

Route

UGTB TUDEK BADKI TODRO DBK03 R1815 LIRA

ID Type Via Altitude Latitude Longitude Leg Dist Tot Dist Heading (true) Name
O UGTB APT - 0 ft / 0 m 41.67691˚ 44.94389˚ - 0 nm - -
TUDEK FIX - 0 ft / 0 m 42.18389˚ 39.40306˚ 249 nm 249 nm 279° / 275° -
BADKI FIX - 0 ft / 0 m 42.99694˚ 29.14333˚ 455 nm 705 nm 280° / 273° -
TODRO FIX - 0 ft / 0 m 42.92000˚ 23.36278˚ 254 nm 959 nm 271° / 267° -
DBK03 FIX - 0 ft / 0 m 42.51664˚ 18.23216˚ 227 nm 1187 nm 266° / 262° -
R1815 FIX - 0 ft / 0 m 41.80806˚ 12.58883˚ 254 nm 1441 nm 262° / 258° -
O LIRA APT - 0 ft / 0 m 41.80806˚ 12.58883˚ 0 nm 1441 nm 0° / 180° -

Altitude Profile

Advertisement - Login to hide

Weather


0- 5 10 15 20 25 30 35+ Temperature / ° C

Clouds and Precipitation
Forecast for 2017-12-13 18:00 UTC. Updated 2 hours ago

Ground ~20,000 ft ~40,000 ft Winds

UGTB

Details ICAO UGTB (TBS)
Name TBILISI
Region Georgia
Timezone Asia/Tbilisi (UTC+4.0)
Stats Elevation 1,624 ft / 495 m (AMSL)
Location 41.668582° 44.953644°
Runways 2
Magnetic Variation 6.647° E

METAR

UGTB 131900Z 13003KT 090V170 3600 BR OVC003 03/02 Q1027 R31L/CLRD70 TEMPO 1000 BR

Decode

TAF

Not found

Departure Runways

ID Width Length Bearing (true) Bearing (mag) Surface Threshold Offset Overrun Length
13L 196 ft / 60 m 8,208 ft / 2,502 m 133.64° 126.99° Asphalt 0 ft / 0 m 0 ft / 0 m
13R 147 ft / 45 m 9,839 ft / 2,999 m 136.65° 130.00° Concrete 0 ft / 0 m 155 ft / 47 m
31L 147 ft / 45 m 9,839 ft / 2,999 m 316.67° 310.02° Concrete 0 ft / 0 m 150 ft / 46 m
31R 196 ft / 60 m 8,208 ft / 2,502 m 313.65° 307.00° Asphalt 0 ft / 0 m 0 ft / 0 m

LIRA

Details ICAO LIRA (CIA)
Name CIAMPINO
Region Italy
Timezone Europe/Rome (UTC+1.0)
Stats Elevation 427 ft / 130 m (AMSL)
Location 41.799228° 12.594917°
Runways 1
Magnetic Variation 3.057° E

METAR

LIRA 131850Z 13006KT 9999 SCT025 08/04 Q1018

Decode

TAF

TAF LIRA 131700Z 1318/1418 VRB05KT 9999 SCT025 BECMG 1402/1404 24013KT TEMPO 1403/1418 4000 RA

Decode

Destination Runways

ID Width Length Bearing (true) Bearing (mag) Surface Threshold Offset Overrun Length
15 154 ft / 47 m 7,246 ft / 2,209 m 152.79° 149.73° Asphalt 0 ft / 0 m 0 ft / 0 m
33 154 ft / 47 m 7,246 ft / 2,209 m 332.80° 329.74° Asphalt 0 ft / 0 m 0 ft / 0 m

Approach Navaids

Runway Type Ident Frequency Range Bearing (true) Bearing (mag) Slope Elevation
15 Localiser CIA 109.90 MHz 18 nm / 33 km 152.81° 149.75° - 426 ft / 130 m (AMSL)
15 Glidescope CIA 109.90 MHz 10 nm / 19 km 152.79° 149.74° 3.00° 384 ft / 117 m (AMSL)